Time;durP1;ratioP1;P1;durP2;ratioP2;P2;SDS_P1;SDS_P2;PMS_P1;PMS_P2;Temp;Humidity;BMP_temperature;BMP_pressure;BME280_temperature;BME280_humidity;BME280_pressure;Samples;Min_cycle;Max_cycle;Signal;HPM_P1;HPM_P2
2022/09/01 00:00:27;;;;;;;0.30;0.30;;;;;;;12.25;54.42;101671.84;5128039;28;20467;-72
2022/09/01 00:02:54;;;;;;;0.40;0.40;;;;;;;12.12;54.41;101663.09;5128110;28;20363;-72
2022/09/01 00:05:20;;;;;;;0.40;0.40;;;;;;;12.05;54.48;101664.75;5127780;28;20023;-72
2022/09/01 00:07:46;;;;;;;0.30;0.30;;;;;;;11.95;54.27;101663.81;5127693;28;20052;-72
2022/09/01 00:10:11;;;;;;;0.30;0.30;;;;;;;11.83;54.18;101663.75;5127740;28;20019;-72
2022/09/01 00:12:38;;;;;;;0.30;0.30;;;;;;;11.75;54.90;101666.31;5127769;28;20036;-72
2022/09/01 00:15:06;;;;;;;0.40;0.40;;;;;;;11.60;56.56;101659.25;5109177;28;20055;-72
2022/09/01 00:17:33;;;;;;;0.40;0.40;;;;;;;11.58;55.64;101661.84;5127543;28;20020;-72
2022/09/01 00:19:58;;;;;;;0.30;0.30;;;;;;;11.50;55.88;101666.13;5127677;28;20069;-72
2022/09/01 00:22:24;;;;;;;0.55;0.55;;;;;;;11.41;57.36;101664.31;5127672;28;20020;-73
2022/09/01 00:24:49;;;;;;;0.40;0.40;;;;;;;11.34;56.61;101665.97;5108905;28;20031;-72
2022/09/01 00:27:15;;;;;;;0.30;0.30;;;;;;;11.28;55.80;101652.94;5126984;28;20019;-72
2022/09/01 00:29:41;;;;;;;0.40;0.40;;;;;;;11.17;55.51;101646.78;5127650;28;20027;-72
2022/09/01 00:32:06;;;;;;;0.30;0.30;;;;;;;11.19;55.78;101658.06;5127430;28;20015;-72
2022/09/01 00:34:31;;;;;;;0.40;0.40;;;;;;;11.13;55.74;101651.09;5127479;28;20347;-72
2022/09/01 00:36:57;;;;;;;0.32;0.32;;;;;;;11.08;55.45;101656.25;5127029;28;20046;-72
2022/09/01 00:39:22;;;;;;;0.40;0.40;;;;;;;11.02;55.34;101650.97;5108345;28;20059;-72
2022/09/01 00:41:49;;;;;;;0.30;0.30;;;;;;;10.99;55.33;101658.75;5127090;28;20182;-72
2022/09/01 00:44:22;;;;;;;0.30;0.30;;;;;;;10.93;55.77;101654.34;5127139;28;20406;-71
2022/09/01 00:46:48;;;;;;;0.40;0.40;;;;;;;10.89;55.67;101648.22;5126778;28;20035;-71
2022/09/01 00:49:33;;;;;;;0.30;0.30;;;;;;;10.85;56.49;101646.47;5127092;28;20019;-71
2022/09/01 00:52:20;;;;;;;0.40;0.40;;;;;;;10.82;56.91;101642.97;5127141;28;20019;-70
2022/09/01 00:54:50;;;;;;;0.40;0.40;;;;;;;10.77;56.10;101640.31;5126763;28;20066;-71
2022/09/01 00:57:16;;;;;;;0.35;0.35;;;;;;;10.72;57.35;101639.41;5126719;28;20027;-71
2022/09/01 01:00:01;;;;;;;0.35;0.35;;;;;;;10.69;57.45;101645.44;5108551;28;20026;-71
2022/09/01 01:02:26;;;;;;;0.30;0.30;;;;;;;10.65;55.87;101649.72;5108377;28;20020;-71
2022/09/01 01:04:52;;;;;;;0.40;0.40;;;;;;;10.66;55.78;101646.28;5126509;28;20395;-71
2022/09/01 01:07:21;;;;;;;0.40;0.40;;;;;;;10.68;56.07;101642.81;5126443;28;20019;-71
2022/09/01 01:09:47;;;;;;;0.40;0.40;;;;;;;10.64;56.01;101645.38;5126588;28;20019;-71
2022/09/01 01:12:16;;;;;;;0.40;0.40;;;;;;;10.65;55.94;101641.06;5126473;28;20024;-71
2022/09/01 01:14:44;;;;;;;0.40;0.40;;;;;;;10.63;55.95;101637.56;5126989;28;20015;-70
2022/09/01 01:17:10;;;;;;;0.30;0.30;;;;;;;10.60;55.90;101640.13;5126329;28;20024;-71
2022/09/01 01:25:15;;;;;;;0.40;0.40;;;;;;;10.50;55.88;101631.38;5126014;28;20030;-70
2022/09/01 01:27:41;;;;;;;0.40;0.40;;;;;;;10.50;55.78;101636.56;5126372;28;20027;-71
2022/09/01 01:30:09;;;;;;;0.30;0.30;;;;;;;10.52;55.67;101640.94;5126210;28;20034;-71
2022/09/01 01:32:36;;;;;;;0.40;0.40;;;;;;;10.52;55.90;101645.25;5126454;28;20019;-71
2022/09/01 01:35:04;;;;;;;0.40;0.40;;;;;;;10.47;56.29;101640.00;5126183;28;20019;-71
2022/09/01 01:37:34;;;;;;;0.40;0.40;;;;;;;10.45;56.33;101633.88;5125351;28;20019;-71
2022/09/01 01:39:59;;;;;;;0.40;0.40;;;;;;;10.43;58.45;101647.69;5107791;28;20023;-72
2022/09/01 01:42:27;;;;;;;0.40;0.40;;;;;;;10.44;58.39;101633.84;5126051;28;20072;-72
2022/09/01 01:44:53;;;;;;;0.40;0.40;;;;;;;10.47;60.35;101636.53;5107496;28;20020;-72
2022/09/01 01:47:19;;;;;;;0.40;0.40;;;;;;;10.48;61.52;101635.69;5107542;28;20046;-72
2022/09/01 01:49:44;;;;;;;0.40;0.40;;;;;;;10.55;60.84;101642.69;5126156;28;20471;-72
2022/09/01 01:52:15;;;;;;;0.40;0.40;;;;;;;10.53;62.36;101636.59;5126251;28;20026;-72
2022/09/01 01:54:40;;;;;;;0.30;0.30;;;;;;;10.60;63.57;101629.75;5107779;28;20092;-72
2022/09/01 01:57:07;;;;;;;0.40;0.40;;;;;;;10.74;62.10;101635.09;5125742;28;20054;-73
2022/09/01 01:59:33;;;;;;;0.40;0.40;;;;;;;10.78;62.28;101631.69;5126113;28;20026;-72
2022/09/01 02:02:03;;;;;;;0.30;0.30;;;;;;;10.86;60.65;101631.78;5125987;28;20047;-73
2022/09/01 02:04:32;;;;;;;0.40;0.40;;;;;;;10.95;59.91;101636.16;5125952;28;20026;-73
2022/09/01 02:06:58;;;;;;;0.40;0.40;;;;;;;11.00;59.38;101637.09;5125834;28;20019;-72
2022/09/01 02:09:23;;;;;;;0.40;0.40;;;;;;;11.07;59.04;101640.63;5126114;28;20088;-72
2022/09/01 02:11:53;;;;;;;0.40;0.40;;;;;;;11.10;58.79;101638.91;5125583;28;20114;-72
2022/09/01 02:14:20;;;;;;;0.40;0.40;;;;;;;11.13;58.42;101631.13;5125733;28;20482;-72
2022/09/01 02:16:46;;;;;;;0.38;0.38;;;;;;;11.15;58.42;101631.16;5125394;28;20055;-73
2022/09/01 02:19:11;;;;;;;0.40;0.40;;;;;;;11.16;58.17;101622.50;5125658;28;20024;-72
2022/09/01 02:21:43;;;;;;;0.40;0.40;;;;;;;11.19;58.21;101630.34;5125928;28;20130;-73
2022/09/01 02:24:10;;;;;;;0.40;0.40;;;;;;;11.22;58.13;101624.28;5125973;28;20031;-72
2022/09/01 02:26:46;;;;;;;0.40;0.40;;;;;;;11.23;57.90;101628.66;5125478;28;20016;-72
2022/09/01 02:29:19;;;;;;;0.40;0.40;;;;;;;11.21;57.67;101626.03;5125882;28;20386;-73
2022/09/01 02:31:47;;;;;;;0.30;0.30;;;;;;;11.21;57.54;101630.34;5125747;28;20027;-73
2022/09/01 02:34:13;;;;;;;0.40;0.40;;;;;;;11.16;57.57;101625.13;5125654;28;20050;-73
2022/09/01 02:36:46;;;;;;;0.40;0.40;;;;;;;11.12;57.62;101632.00;5107114;28;20016;-72
2022/09/01 02:39:13;;;;;;;0.40;0.40;;;;;;;11.07;57.58;101623.28;5125877;28;20028;-73
2022/09/01 02:41:40;;;;;;;0.40;0.40;;;;;;;11.00;57.47;101624.97;5125637;28;20043;-73
2022/09/01 02:44:10;;;;;;;0.38;0.38;;;;;;;10.96;57.42;101627.53;5125658;28;20047;-73
2022/09/01 02:46:40;;;;;;;0.30;0.30;;;;;;;10.95;57.38;101620.59;5106876;28;20043;-73
2022/09/01 02:49:14;;;;;;;0.40;0.40;;;;;;;10.91;57.86;101620.56;5127462;28;20027;-72
2022/09/01 02:51:43;;;;;;;0.40;0.40;;;;;;;11.01;58.09;101625.84;5129554;28;20061;-72
2022/09/01 02:54:16;;;;;;;0.30;0.30;;;;;;;11.07;58.19;101628.50;5129601;28;20098;-73
2022/09/01 02:56:46;;;;;;;0.40;0.40;;;;;;;11.10;58.06;101615.50;5110890;28;20023;-73
2022/09/01 02:59:16;;;;;;;0.40;0.40;;;;;;;11.23;58.10;101618.25;5129496;28;20024;-73
2022/09/01 03:01:43;;;;;;;0.40;0.40;;;;;;;11.30;57.88;101622.63;5111208;28;20114;-73
2022/09/01 03:04:10;;;;;;;0.40;0.40;;;;;;;11.34;57.82;101621.78;5129514;28;20089;-72
2022/09/01 03:06:37;;;;;;;0.40;0.40;;;;;;;11.38;57.98;101605.38;5129073;28;20030;-73
2022/09/01 03:09:06;;;;;;;0.30;0.30;;;;;;;11.45;58.07;101610.59;5111779;28;20110;-72
2022/09/01 03:11:33;;;;;;;0.40;0.40;;;;;;;11.52;57.69;101610.66;5131206;28;20483;-73
2022/09/01 03:13:59;;;;;;;0.40;0.40;;;;;;;11.56;57.69;101610.69;5111904;28;20026;-73
2022/09/01 03:16:25;;;;;;;0.40;0.40;;;;;;;11.63;57.56;101613.31;5128993;28;20016;-73
2022/09/01 03:18:51;;;;;;;0.40;0.40;;;;;;;11.70;57.59;101613.38;5129234;28;20031;-72
2022/09/01 03:21:17;;;;;;;0.40;0.40;;;;;;;11.73;57.38;101609.06;5128901;28;20024;-72
2022/09/01 03:23:44;;;;;;;0.40;0.40;;;;;;;11.77;57.26;101618.63;5129181;28;20024;-72
2022/09/01 03:26:11;;;;;;;0.30;0.30;;;;;;;11.71;57.22;101599.53;5110037;28;20382;-73
2022/09/01 03:28:36;;;;;;;0.32;0.32;;;;;;;11.80;57.08;101602.16;5127729;28;20027;-73
2022/09/01 03:31:02;;;;;;;0.40;0.40;;;;;;;11.86;57.07;101602.19;5127993;28;20027;-72
2022/09/01 03:33:28;;;;;;;0.35;0.35;;;;;;;11.83;57.97;101583.97;5110444;28;20023;-73
2022/09/01 03:35:54;;;;;;;0.30;0.30;;;;;;;11.50;58.54;101538.69;5128283;28;20042;-72
2022/09/01 03:38:22;;;;;;;0.38;0.38;;;;;;;11.94;57.73;101588.34;5128390;28;20030;-73
2022/09/01 03:40:51;;;;;;;0.35;0.35;;;;;;;11.95;57.85;101596.16;5128307;28;20024;-73
2022/09/01 03:43:18;;;;;;;0.30;0.30;;;;;;;11.98;57.41;101592.72;5128513;28;20023;-73
2022/09/01 03:45:45;;;;;;;0.30;0.30;;;;;;;12.05;57.43;101594.47;5128081;28;20092;-71
2022/09/01 03:48:11;;;;;;;0.30;0.30;;;;;;;12.06;57.18;101590.16;5128325;28;20483;-71
2022/09/01 03:50:44;;;;;;;0.40;0.40;;;;;;;12.09;57.28;101593.66;5128254;28;20047;-72
2022/09/01 03:53:11;;;;;;;0.40;0.40;;;;;;;12.10;57.13;101595.41;5128494;28;20051;-72
2022/09/01 03:55:37;;;;;;;0.40;0.40;;;;;;;12.09;57.06;101593.66;5128162;28;20106;-73
2022/09/01 03:58:07;;;;;;;0.30;0.30;;;;;;;12.08;56.97;101583.22;5109696;28;20068;-72
2022/09/01 04:00:36;;;;;;;0.30;0.30;;;;;;;12.07;57.11;101587.56;5127465;28;20028;-73
2022/09/01 04:03:06;;;;;;;0.38;0.38;;;;;;;12.08;56.93;101576.31;5128245;28;20030;-73
2022/09/01 04:05:33;;;;;;;0.40;0.40;;;;;;;12.10;56.85;101582.41;5127666;28;20023;-72
2022/09/01 04:08:05;;;;;;;0.40;0.40;;;;;;;12.16;56.89;101578.09;5109640;28;20019;-73
2022/09/01 04:10:36;;;;;;;0.50;0.50;;;;;;;12.18;56.82;101586.75;5128053;28;20099;-71
2022/09/01 04:13:01;;;;;;;0.40;0.40;;;;;;;12.19;56.75;101584.16;5109516;28;20028;-70
2022/09/01 04:15:28;;;;;;;0.40;0.40;;;;;;;12.22;56.89;101591.97;5127474;28;20022;-72
2022/09/01 04:18:09;;;;;;;0.40;0.40;;;;;;;12.23;56.76;101582.44;5127694;28;20016;-72
2022/09/01 04:20:48;;;;;;;0.30;0.30;;;;;;;12.23;56.64;101590.25;5127832;28;20038;-72
2022/09/01 04:23:28;;;;;;;0.32;0.32;;;;;;;12.24;56.87;101591.97;5127754;28;20024;-72
2022/09/01 04:26:08;;;;;;;0.30;0.30;;;;;;;12.36;56.79;101586.81;5127555;28;20020;-72
2022/09/01 04:28:40;;;;;;;0.30;0.30;;;;;;;12.59;57.17;101587.72;5127638;28;20063;-69
2022/09/01 04:31:08;;;;;;;0.30;0.30;;;;;;;12.83;57.35;101589.53;5127491;28;20108;-73
2022/09/01 04:33:38;;;;;;;0.30;0.30;;;;;;;13.17;57.57;101590.41;5108993;28;20077;-73
2022/09/01 04:36:05;;;;;;;0.30;0.30;;;;;;;13.47;57.71;101584.28;5127434;28;20409;-73
2022/09/01 04:38:34;;;;;;;0.30;0.30;;;;;;;13.84;57.79;101583.38;5107796;28;20032;-74
2022/09/01 04:41:05;;;;;;;0.30;0.30;;;;;;;14.25;57.83;101584.06;5127258;28;20450;-74
2022/09/01 04:43:31;;;;;;;0.30;0.30;;;;;;;14.74;57.97;101591.66;5127397;28;20030;-73
2022/09/01 04:45:57;;;;;;;0.30;0.30;;;;;;;15.14;57.92;101580.03;5126778;28;20040;-74
2022/09/01 04:48:24;;;;;;;0.30;0.30;;;;;;;15.57;57.72;101583.13;5108931;28;20019;-74
2022/09/01 04:50:51;;;;;;;0.30;0.30;;;;;;;16.12;57.73;101574.69;5127278;28;20438;-74
2022/09/01 04:53:17;;;;;;;0.30;0.30;;;;;;;16.57;57.39;101563.56;5127318;28;20024;-73
2022/09/01 04:55:43;;;;;;;0.30;0.30;;;;;;;17.18;57.29;101575.72;5126663;28;20030;-73
2022/09/01 04:58:16;;;;;;;0.20;0.20;;;;;;;17.79;57.32;101575.50;5127129;28;20099;-73
2022/09/01 05:00:43;;;;;;;0.20;0.20;;;;;;;18.28;56.85;101559.59;5127488;28;20023;-72
2022/09/01 05:03:09;;;;;;;0.30;0.30;;;;;;;18.81;55.87;101573.28;5108850;28;20024;-74
2022/09/01 05:05:41;;;;;;;0.20;0.20;;;;;;;19.30;55.64;101571.19;5126743;28;20023;-73
2022/09/01 05:08:12;;;;;;;;;;;;;;;19.75;51.64;101577.00;5127223;28;20029;-71
2022/09/01 05:10:41;;;;;;;0.20;0.20;;;;;;;20.03;52.23;101568.31;5126710;28;19915;-69
2022/09/01 05:13:08;;;;;;;0.20;0.20;;;;;;;20.21;52.94;101571.31;5126781;28;20023;-70
2022/09/01 05:15:37;;;;;;;0.40;0.40;;;;;;;20.22;51.59;101575.69;5126518;28;20023;-73
2022/09/01 05:18:08;;;;;;;0.20;0.20;;;;;;;20.01;51.38;101578.03;5126670;28;20020;-73
2022/09/01 05:20:41;;;;;;;;;;;;;;;19.95;47.96;101565.03;5127228;28;20035;-72
2022/09/01 05:23:18;;;;;;;0.20;0.20;;;;;;;20.25;49.25;101572.97;5126457;28;19929;-73
2022/09/01 05:25:47;;;;;;;0.20;0.20;;;;;;;20.27;49.84;101573.75;5126342;28;20058;-74
2022/09/01 05:28:16;;;;;;;0.20;0.20;;;;;;;20.06;49.85;101570.84;5126691;28;20046;-74
2022/09/01 05:30:42;;;;;;;0.20;0.20;;;;;;;19.86;49.64;101575.81;5126665;28;20027;-73
2022/09/01 05:33:10;;;;;;;0.20;0.20;;;;;;;19.65;48.74;101586.09;5126770;28;20028;-73
2022/09/01 05:35:37;;;;;;;0.28;0.28;;;;;;;19.57;49.20;101581.88;5126134;28;20022;-73
2022/09/01 05:38:03;;;;;;;0.30;0.30;;;;;;;19.43;49.13;101576.13;5126468;28;20030;-75
2022/09/01 05:40:29;;;;;;;0.20;0.20;;;;;;;19.43;49.06;101578.75;5125896;28;20053;-73
2022/09/01 05:42:54;;;;;;;0.20;0.20;;;;;;;19.75;49.63;101582.28;5126335;28;20028;-72
2022/09/01 05:45:22;;;;;;;0.20;0.20;;;;;;;19.73;48.45;101591.16;5126027;28;20093;-72
2022/09/01 05:47:47;;;;;;;0.20;0.20;;;;;;;19.55;48.41;101588.94;5125948;28;20034;-73
2022/09/01 05:50:18;;;;;;;0.20;0.20;;;;;;;19.66;49.13;101579.91;5126081;28;20028;-71
2022/09/01 05:52:46;;;;;;;0.20;0.20;;;;;;;20.04;49.20;101582.38;5126075;28;20051;-72
2022/09/01 05:55:14;;;;;;;0.20;0.20;;;;;;;20.34;48.28;101581.47;5107893;28;20052;-71
2022/09/01 05:57:40;;;;;;;0.20;0.20;;;;;;;20.33;48.01;101579.75;5125737;28;20083;-72
2022/09/01 06:00:11;;;;;;;0.20;0.20;;;;;;;20.38;47.45;101593.69;5107582;28;20445;-72
2022/09/01 06:02:37;;;;;;;0.20;0.20;;;;;;;20.30;47.26;101597.38;5126053;28;20020;-72
2022/09/01 06:05:03;;;;;;;0.43;0.43;;;;;;;20.48;47.52;101581.06;5107610;28;20036;-71
2022/09/01 06:07:29;;;;;;;0.30;0.30;;;;;;;20.77;47.34;101580.13;5107731;28;20106;-72
2022/09/01 06:09:55;;;;;;;0.20;0.20;;;;;;;20.78;47.24;101570.44;5107602;28;20065;-73
2022/09/01 06:12:24;;;;;;;0.22;0.22;;;;;;;21.15;47.32;101589.50;5125600;28;20028;-72
2022/09/01 06:14:54;;;;;;;0.20;0.20;;;;;;;21.26;46.89;101584.66;5107668;28;20043;-73
2022/09/01 06:17:23;;;;;;;0.20;0.20;;;;;;;21.49;46.89;101582.13;5125588;28;20028;-72
2022/09/01 06:19:56;;;;;;;0.20;0.20;;;;;;;21.60;46.53;101587.91;5125950;28;20047;-70
2022/09/01 06:22:23;;;;;;;0.20;0.20;;;;;;;21.90;46.46;101589.50;5126229;28;20100;-72
2022/09/01 06:24:50;;;;;;;0.40;0.40;;;;;;;22.09;45.53;101596.75;5128563;28;20026;-71
2022/09/01 06:27:17;;;;;;;0.20;0.20;;;;;;;22.35;45.29;101589.59;5129666;28;20077;-71
2022/09/01 06:29:44;;;;;;;0.20;0.20;;;;;;;22.25;44.15;101589.06;5111959;28;20417;-72
2022/09/01 06:32:11;;;;;;;0.20;0.20;;;;;;;22.51;44.24;101592.44;5130199;28;20024;-72
2022/09/01 06:34:42;;;;;;;0.73;0.73;;;;;;;22.10;43.89;101604.63;5129844;28;20023;-72
2022/09/01 06:37:08;;;;;;;0.20;0.20;;;;;;;21.69;44.20;101585.84;5129882;28;20015;-71
2022/09/01 06:39:34;;;;;;;0.20;0.20;;;;;;;21.89;43.88;101596.56;5130047;28;20098;-72
2022/09/01 06:41:59;;;;;;;0.20;0.20;;;;;;;21.90;43.63;101597.44;5129534;28;20077;-72
2022/09/01 06:44:25;;;;;;;0.20;0.20;;;;;;;21.98;44.13;101587.41;5129777;28;20079;-71
2022/09/01 06:46:51;;;;;;;0.20;0.20;;;;;;;22.33;43.27;101594.06;5129304;28;20039;-73
2022/09/01 06:49:18;;;;;;;0.20;0.20;;;;;;;22.26;42.70;101586.38;5111436;28;20045;-71
2022/09/01 06:51:43;;;;;;;0.20;0.20;;;;;;;22.09;43.25;101587.03;5129817;28;20076;-70
2022/09/01 06:54:13;;;;;;;0.20;0.20;;;;;;;22.22;43.12;101589.19;5129758;28;20052;-71
2022/09/01 06:56:38;;;;;;;0.20;0.20;;;;;;;22.45;42.70;101588.28;5129403;28;20387;-72
2022/09/01 06:59:04;;;;;;;0.20;0.20;;;;;;;22.34;42.28;101591.34;5129770;28;20087;-71
2022/09/01 07:01:31;;;;;;;0.20;0.20;;;;;;;21.80;41.09;101581.06;5129547;28;20020;-70
2022/09/01 07:03:56;;;;;;;0.20;0.20;;;;;;;21.20;42.20;101587.53;5129574;28;20015;-70
2022/09/01 07:06:26;;;;;;;0.20;0.20;;;;;;;20.87;42.27;101590.38;5129145;28;20058;-69
2022/09/01 07:08:54;;;;;;;0.20;0.20;;;;;;;20.52;42.86;101578.28;5129257;28;20027;-69
2022/09/01 07:11:30;;;;;;;0.20;0.20;;;;;;;20.26;43.19;101590.50;5129174;28;20023;-69
2022/09/01 07:14:02;;;;;;;0.20;0.20;;;;;;;20.19;43.22;101588.97;5110657;28;20057;-71
2022/09/01 07:16:31;;;;;;;0.20;0.20;;;;;;;20.32;43.09;101594.72;5129052;28;20054;-70
2022/09/01 07:19:00;;;;;;;0.20;0.20;;;;;;;20.29;43.05;101600.94;5129408;28;20023;-70
2022/09/01 07:21:27;;;;;;;0.20;0.20;;;;;;;20.27;43.22;101597.50;5110832;28;20384;-70
2022/09/01 07:23:52;;;;;;;0.20;0.20;;;;;;;20.34;42.74;101607.84;5128947;28;20079;-70
2022/09/01 07:26:19;;;;;;;0.20;0.20;;;;;;;20.26;43.08;101602.81;5128253;28;20065;-70
2022/09/01 07:28:45;;;;;;;0.20;0.20;;;;;;;20.55;43.46;101595.78;5109542;28;20028;-70
2022/09/01 07:31:20;;;;;;;0.20;0.20;;;;;;;20.93;42.86;101608.66;5128068;28;20028;-70
2022/09/01 07:33:50;;;;;;;0.20;0.20;;;;;;;20.98;42.03;101608.50;5110480;28;20028;-70
2022/09/01 07:36:18;;;;;;;0.20;0.20;;;;;;;20.86;41.50;101602.72;5127591;28;20012;-71
2022/09/01 07:38:44;;;;;;;0.28;0.28;;;;;;;20.89;41.67;101615.81;5128940;28;20024;-70
2022/09/01 07:41:13;;;;;;;0.20;0.20;;;;;;;20.74;41.98;101609.25;5128695;28;20156;-71
2022/09/01 07:43:43;;;;;;;0.20;0.20;;;;;;;20.74;41.76;101603.97;5128895;28;20016;-70
2022/09/01 07:46:10;;;;;;;0.20;0.20;;;;;;;20.66;42.14;101605.97;5128359;28;20040;-71
2022/09/01 07:48:36;;;;;;;0.20;0.20;;;;;;;20.97;41.41;101610.31;5110180;28;20032;-71
2022/09/01 07:51:03;;;;;;;0.20;0.20;;;;;;;20.78;41.36;101610.84;5128813;28;20050;-70
2022/09/01 07:53:31;;;;;;;0.20;0.20;;;;;;;20.60;41.66;101612.34;5128806;28;20047;-71
2022/09/01 07:56:05;;;;;;;0.20;0.20;;;;;;;20.66;41.74;101608.63;5127822;28;20020;-71
2022/09/01 07:58:32;;;;;;;0.20;0.20;;;;;;;20.75;41.56;101602.19;5110188;28;20043;-71
2022/09/01 08:01:00;;;;;;;0.20;0.20;;;;;;;20.57;41.09;101615.06;5128353;28;20084;-70
2022/09/01 08:03:25;;;;;;;0.20;0.20;;;;;;;20.66;41.53;101613.91;5127187;28;20061;-70
2022/09/01 08:05:56;;;;;;;0.30;0.30;;;;;;;20.83;41.28;101613.34;5126816;28;20067;-70
2022/09/01 08:08:22;;;;;;;0.20;0.20;;;;;;;20.97;41.33;101623.50;5127529;28;20091;-71
2022/09/01 08:10:48;;;;;;;0.20;0.20;;;;;;;21.17;40.86;101620.19;5128006;28;20550;-71
2022/09/01 08:13:15;;;;;;;0.20;0.20;;;;;;;21.22;39.59;101621.81;5128373;28;20056;-71
2022/09/01 08:15:41;;;;;;;0.20;0.20;;;;;;;21.07;40.30;101607.38;5128307;28;20016;-71
2022/09/01 08:18:07;;;;;;;0.20;0.20;;;;;;;21.19;39.36;101612.22;5127906;28;20030;-72
2022/09/01 08:20:38;;;;;;;0.20;0.20;;;;;;;20.95;39.99;101617.41;5128126;28;20031;-72
2022/09/01 08:23:04;;;;;;;0.20;0.20;;;;;;;20.88;40.30;101611.44;5127983;28;20016;-71
2022/09/01 08:25:31;;;;;;;0.50;0.50;;;;;;;21.23;40.61;101612.97;5127802;28;20027;-71
2022/09/01 08:27:57;;;;;;;0.20;0.20;;;;;;;21.73;39.02;101606.81;5127813;28;20448;-71
2022/09/01 08:30:22;;;;;;;0.20;0.20;;;;;;;21.88;38.71;101617.78;5109627;28;20470;-73
2022/09/01 08:32:48;;;;;;;0.20;0.20;;;;;;;22.03;38.68;101608.41;5109681;28;20027;-71
2022/09/01 08:35:15;;;;;;;0.20;0.20;;;;;;;22.29;39.13;101609.19;5109498;28;20027;-71
2022/09/01 08:37:41;;;;;;;0.20;0.20;;;;;;;22.74;37.81;101607.44;5127538;28;20035;-71
2022/09/01 08:40:11;;;;;;;0.20;0.20;;;;;;;22.96;37.47;101606.56;5127501;28;20055;-71
2022/09/01 08:43:06;;;;;;;0.20;0.20;;;;;;;23.40;37.19;101608.25;5127250;28;20031;-71
2022/09/01 08:45:38;;;;;;;0.20;0.20;;;;;;;23.62;35.53;101609.09;5127246;28;20046;-71
2022/09/01 08:48:14;;;;;;;0.20;0.20;;;;;;;23.61;36.10;101602.94;5127017;28;20047;-71
2022/09/01 08:50:42;;;;;;;0.20;0.20;;;;;;;23.75;35.23;101607.59;5127603;28;20023;-70
2022/09/01 08:53:17;;;;;;;0.20;0.20;;;;;;;23.61;33.99;101607.38;5127504;28;20425;-71
2022/09/01 08:55:46;;;;;;;0.20;0.20;;;;;;;23.11;33.59;101609.47;5127144;28;20031;-71
2022/09/01 08:58:16;;;;;;;0.20;0.20;;;;;;;22.80;33.75;101597.50;5127335;28;20027;-71
2022/09/01 09:00:47;;;;;;;0.20;0.20;;;;;;;22.52;33.55;101604.78;5127167;28;20033;-70
2022/09/01 09:03:36;;;;;;;0.20;0.20;;;;;;;22.46;34.29;101597.09;5108726;28;20025;-70
2022/09/01 09:06:14;;;;;;;0.20;0.20;;;;;;;22.65;34.14;101592.78;5126713;28;20053;-70
2022/09/01 09:09:00;;;;;;;0.20;0.20;;;;;;;22.99;33.51;101595.84;5127127;28;20083;-70
2022/09/01 09:11:45;;;;;;;0.20;0.20;;;;;;;23.04;33.90;101593.00;5126868;28;20471;-71
2022/09/01 09:14:35;;;;;;;0.20;0.20;;;;;;;23.44;34.27;101586.91;5127041;28;20020;-71
2022/09/01 09:17:03;;;;;;;0.20;0.20;;;;;;;23.85;32.37;101593.94;5108592;28;20064;-71
2022/09/01 09:19:32;;;;;;;0.20;0.20;;;;;;;23.84;33.06;101592.22;5108780;28;20049;-72
2022/09/01 09:22:01;;;;;;;0.20;0.20;;;;;;;24.06;33.33;101584.13;5126829;28;20028;-71
2022/09/01 09:24:46;;;;;;;0.20;0.20;;;;;;;24.63;31.84;101587.66;5126852;28;20429;-70
2022/09/01 09:27:31;;;;;;;0.20;0.20;;;;;;;24.43;31.07;101591.28;5126652;28;20091;-68
2022/09/01 09:29:57;;;;;;;0.20;0.20;;;;;;;23.98;32.34;101580.94;5126792;28;20030;-71
2022/09/01 09:32:42;;;;;;;0.20;0.20;;;;;;;24.16;32.63;101578.41;5126623;28;20031;-71
2022/09/01 09:35:19;;;;;;;0.20;0.20;;;;;;;24.88;32.35;101575.81;5126656;28;20023;-70
2022/09/01 09:37:44;;;;;;;0.10;0.10;;;;;;;25.48;31.34;101571.84;5126548;28;20113;-69
2022/09/01 09:40:17;;;;;;;0.20;0.20;;;;;;;25.77;31.14;101571.25;5126499;28;20019;-70
2022/09/01 09:42:55;;;;;;;0.20;0.20;;;;;;;26.33;30.39;101559.34;5126524;28;20119;-71
2022/09/01 09:45:39;;;;;;;0.10;0.10;;;;;;;26.58;29.44;101560.59;5126366;28;20558;-71
2022/09/01 09:48:26;;;;;;;0.10;0.10;;;;;;;26.59;30.09;101557.84;5126355;28;20028;-70
2022/09/01 09:50:51;;;;;;;0.40;0.40;;;;;;;26.84;30.36;101559.06;5126467;28;20027;-70
2022/09/01 09:53:23;;;;;;;0.10;0.10;;;;;;;26.90;29.88;101568.47;5126646;28;20024;-70
2022/09/01 09:56:14;;;;;;;0.10;0.10;;;;;;;27.17;30.17;101570.47;5126288;28;20015;-70
2022/09/01 09:58:42;;;;;;;0.10;0.10;;;;;;;27.36;30.17;101561.34;5107342;28;20036;-70
2022/09/01 10:01:22;;;;;;;0.10;0.10;;;;;;;27.82;30.36;101562.97;5126361;28;20027;-70
2022/09/01 10:03:50;;;;;;;0.10;0.10;;;;;;;28.24;29.51;101555.88;5126253;28;20028;-71
2022/09/01 10:06:35;;;;;;;0.10;0.10;;;;;;;27.70;27.36;101551.25;5107559;28;20084;-72
2022/09/01 10:09:05;;;;;;;0.10;0.10;;;;;;;27.09;28.83;101559.44;5126211;28;20075;-71
2022/09/01 10:11:30;;;;;;;0.10;0.10;;;;;;;26.70;28.27;101551.03;5126302;28;20030;-70
2022/09/01 10:13:55;;;;;;;0.10;0.10;;;;;;;26.24;29.97;101552.72;5126545;28;20043;-71
2022/09/01 10:16:30;;;;;;;0.10;0.10;;;;;;;26.57;28.76;101549.09;5125976;28;20732;-70
2022/09/01 10:18:59;;;;;;;0.10;0.10;;;;;;;26.42;28.98;101542.84;5126115;28;20079;-70
2022/09/01 10:21:36;;;;;;;0.20;0.20;;;;;;;26.63;29.12;101545.19;5126063;28;20016;-71
2022/09/01 10:24:14;;;;;;;0.10;0.10;;;;;;;26.87;28.97;101539.34;5126342;28;20083;-70
2022/09/01 10:26:42;;;;;;;0.10;0.10;;;;;;;27.30;29.06;101540.41;5125692;28;20034;-70
2022/09/01 10:29:13;;;;;;;0.10;0.10;;;;;;;27.29;27.12;101534.22;5126034;28;20023;-70
2022/09/01 10:31:39;;;;;;;;;;;;;;;26.82;28.09;101533.47;5126409;28;20034;-69
2022/09/01 10:34:10;;;;;;;0.10;0.10;;;;;;;27.02;28.30;101528.75;5126088;28;19907;-69
2022/09/01 10:36:36;;;;;;;0.20;0.20;;;;;;;27.03;28.81;101536.66;5125797;28;20054;-72
2022/09/01 10:39:03;;;;;;;0.10;0.10;;;;;;;27.17;28.93;101538.50;5125965;28;20031;-71
2022/09/01 10:41:49;;;;;;;0.10;0.10;;;;;;;27.70;27.33;101545.09;5125707;28;20024;-72
2022/09/01 10:44:25;;;;;;;0.10;0.10;;;;;;;27.32;27.75;101541.16;5126069;28;20055;-71
2022/09/01 10:46:52;;;;;;;0.20;0.20;;;;;;;27.47;27.65;101532.22;5125551;28;20043;-71
2022/09/01 10:49:29;;;;;;;0.17;0.17;;;;;;;27.33;28.61;101537.53;5125912;28;20020;-71
2022/09/01 10:51:56;;;;;;;0.10;0.10;;;;;;;27.90;28.73;101537.59;5125674;28;20030;-71
2022/09/01 10:54:40;;;;;;;0.10;0.10;;;;;;;28.51;27.35;101528.34;5125861;28;20031;-71
2022/09/01 10:57:22;;;;;;;0.55;0.55;;;;;;;28.68;26.52;101527.19;5125368;28;20024;-71
2022/09/01 10:59:48;;;;;;;0.10;0.10;;;;;;;27.58;26.45;101530.66;5125817;28;20250;-72
2022/09/01 11:02:17;;;;;;;0.10;0.10;;;;;;;26.81;28.18;101531.72;5125567;28;20077;-70
2022/09/01 11:04:45;;;;;;;0.22;0.22;;;;;;;26.71;28.73;101537.63;5125478;28;20065;-70
2022/09/01 11:07:20;;;;;;;0.17;0.17;;;;;;;26.81;27.37;101527.28;5125552;28;20029;-70
2022/09/01 11:10:30;;;;;;;0.10;0.10;;;;;;;27.19;28.33;101533.91;5126565;28;20420;-70
2022/09/01 11:13:04;;;;;;;0.10;0.10;;;;;;;27.91;27.15;101529.47;5129173;28;20031;-70
2022/09/01 11:15:35;;;;;;;0.10;0.10;;;;;;;28.23;27.13;101527.50;5129518;28;20269;-71
2022/09/01 11:18:06;;;;;;;0.10;0.10;;;;;;;28.58;26.66;101529.63;5129093;28;20119;-71
2022/09/01 11:20:35;;;;;;;1.00;1.00;;;;;;;28.57;25.80;101526.13;5110854;28;20027;-71
2022/09/01 11:23:04;;;;;;;0.10;0.10;;;;;;;28.35;25.74;101523.16;5129409;28;20051;-70
2022/09/01 11:25:32;;;;;;;0.20;0.20;;;;;;;26.80;26.11;101525.56;5128957;28;20024;-71
2022/09/01 11:28:06;;;;;;;0.10;0.10;;;;;;;24.94;28.70;101524.19;5127506;28;20027;-71
2022/09/01 11:30:53;;;;;;;0.10;0.10;;;;;;;23.35;30.37;101536.03;5127923;28;20027;-69
2022/09/01 11:33:28;;;;;;;0.10;0.10;;;;;;;22.03;32.16;101532.59;5129256;28;20062;-70
2022/09/01 11:36:05;;;;;;;0.20;0.20;;;;;;;21.10;33.74;101535.97;5128928;28;20126;-72
2022/09/01 11:38:44;;;;;;;0.20;0.20;;;;;;;20.47;34.61;101535.34;5128758;28;20050;-69
2022/09/01 11:41:39;;;;;;;0.20;0.20;;;;;;;20.02;35.70;101529.69;5128320;28;20543;-70
2022/09/01 11:44:13;;;;;;;0.20;0.20;;;;;;;19.85;35.69;101529.31;5069466;28;20043;-71